createdAt,value
2023-03-10T00:02:11.648Z,71.96
2023-03-10T00:23:52.089Z,72.33
2023-03-10T00:28:21.613Z,72.22
2023-03-10T00:51:00.242Z,72.33
2023-03-10T00:55:20.378Z,72.40
2023-03-10T00:59:50.821Z,72.31
2023-03-10T01:04:21.300Z,72.53
2023-03-10T01:26:40.335Z,72.52
2023-03-10T01:30:49.329Z,72.65
2023-03-10T01:53:25.101Z,72.71
2023-03-10T01:57:53.935Z,72.96
2023-03-10T02:02:23.286Z,72.86
2023-03-10T02:06:46.039Z,72.92
2023-03-10T02:28:21.580Z,72.82
2023-03-10T02:32:51.218Z,73.14
2023-03-10T02:37:20.846Z,73.36
2023-03-10T02:41:52.715Z,73.16
2023-03-10T03:03:18.135Z,73.27
2023-03-10T03:07:43.928Z,73.09
2023-03-10T03:12:12.897Z,73.30
2023-03-10T03:16:36.023Z,73.71
2023-03-10T03:21:06.462Z,73.47
2023-03-10T03:25:36.593Z,73.71
2023-03-10T03:55:55.108Z,73.53
2023-03-10T04:00:06.607Z,73.95
2023-03-10T04:04:36.400Z,73.39
2023-03-10T04:21:26.051Z,73.83
2023-03-10T04:25:40.641Z,73.64
2023-03-10T04:30:09.400Z,73.95
2023-03-10T04:34:31.439Z,74.06
2023-03-10T04:38:39.289Z,73.88
2023-03-10T04:43:08.641Z,74.00
2023-03-10T04:47:31.016Z,74.23
2023-03-10T04:51:47.262Z,73.85
2023-03-10T04:56:08.246Z,74.10
2023-03-10T05:21:27.144Z,73.82
2023-03-10T05:25:24.464Z,74.06
2023-03-10T05:29:53.305Z,74.35
2023-03-10T05:33:55.794Z,74.17
2023-03-10T05:38:23.074Z,74.48
2023-03-10T05:42:44.278Z,74.38
2023-03-10T05:46:46.484Z,74.72
2023-03-10T05:50:58.766Z,74.51
2023-03-10T05:54:29.663Z,74.36
2023-03-10T05:57:39.873Z,74.44
2023-03-10T06:01:02.781Z,74.44
2023-03-10T06:04:35.983Z,74.50
2023-03-10T06:07:24.405Z,74.80
2023-03-10T06:10:28.102Z,74.51
2023-03-10T06:14:55.636Z,74.84
2023-03-10T06:18:45.597Z,74.76
2023-03-10T06:23:13.627Z,74.52
2023-03-10T06:27:46.410Z,74.80
2023-03-10T06:32:18.624Z,74.73
2023-03-10T06:57:30.011Z,74.97
2023-03-10T07:00:53.738Z,74.81
2023-03-10T07:05:14.543Z,75.20
2023-03-10T07:08:54.852Z,74.97
2023-03-10T07:12:49.957Z,74.93
2023-03-10T07:16:37.430Z,74.80
2023-03-10T07:20:25.662Z,75.10
2023-03-10T07:24:45.058Z,75.02
2023-03-10T07:28:54.183Z,75.39
2023-03-10T07:32:46.269Z,75.15
2023-03-10T07:37:14.182Z,75.18
2023-03-10T07:41:38.209Z,74.88
2023-03-10T08:11:07.738Z,74.59
2023-03-10T08:15:27.003Z,74.40
2023-03-10T08:19:21.881Z,74.81
2023-03-10T08:22:16.478Z,74.61
2023-03-10T08:25:12.934Z,74.42
2023-03-10T08:28:44.078Z,74.19
2023-03-10T08:31:50.577Z,74.03
2023-03-10T08:35:25.278Z,74.19
2023-03-10T08:39:26.604Z,74.21
2023-03-10T08:42:57.807Z,74.14
2023-03-10T08:45:59.885Z,73.99
2023-03-10T08:56:03.818Z,74.08
2023-03-10T08:59:08.560Z,73.89
2023-03-10T09:02:18.367Z,73.94
2023-03-10T09:05:43.226Z,73.95
2023-03-10T09:10:13.402Z,73.68
2023-03-10T09:14:24.312Z,73.86
2023-03-10T09:18:21.025Z,73.77
2023-03-10T09:22:40.503Z,73.85
2023-03-10T10:10:43.179Z,72.42
2023-03-10T10:28:56.917Z,71.98
2023-03-10T10:33:24.776Z,72.39
2023-03-10T10:38:09.579Z,72.03
2023-03-10T10:42:28.317Z,72.05
2023-03-10T10:46:53.495Z,72.13
2023-03-10T11:17:51.867Z,72.03
2023-03-10T11:22:27.464Z,72.14
2023-03-10T11:27:01.533Z,72.45
2023-03-10T11:31:38.995Z,72.09
2023-03-10T11:36:07.058Z,72.02
2023-03-10T12:02:49.562Z,71.93
2023-03-10T12:07:18.156Z,71.82
2023-03-10T12:30:02.738Z,72.10
2023-03-10T12:34:32.134Z,72.04
2023-03-10T12:39:03.491Z,72.18
2023-03-10T12:43:35.660Z,72.29
2023-03-10T12:48:10.785Z,71.81
2023-03-10T13:29:56.183Z,72.76
2023-03-10T13:34:15.757Z,72.74
2023-03-10T13:38:46.670Z,72.65
2023-03-10T13:43:06.404Z,72.61
2023-03-10T13:47:38.927Z,72.88
2023-03-10T13:52:08.203Z,72.87
2023-03-10T13:56:38.886Z,72.79
2023-03-10T14:31:26.181Z,73.32
2023-03-10T14:35:45.943Z,73.15
2023-03-10T14:40:15.892Z,73.43
2023-03-10T14:44:44.831Z,73.84
2023-03-10T14:49:06.082Z,73.88
2023-03-10T14:53:35.159Z,74.02
2023-03-10T14:57:40.765Z,74.06
2023-03-10T15:19:01.695Z,74.04
2023-03-10T15:23:30.890Z,74.13
2023-03-10T15:27:53.849Z,73.96
2023-03-10T15:32:14.688Z,74.36
2023-03-10T15:40:03.877Z,74.45
2023-03-10T15:44:16.092Z,74.69
2023-03-10T15:48:45.455Z,74.36
2023-03-10T15:52:46.738Z,74.50
2023-03-10T15:57:16.622Z,74.69
2023-03-10T16:01:41.817Z,74.47
2023-03-10T16:33:17.216Z,74.88
2023-03-10T16:37:46.924Z,75.04
2023-03-10T16:42:09.425Z,75.09
2023-03-10T16:46:47.821Z,75.28
2023-03-10T16:51:16.475Z,75.42
2023-03-10T17:17:15.767Z,75.77
2023-03-10T17:21:57.131Z,75.51
2023-03-10T17:43:46.311Z,76.10
2023-03-10T17:47:56.809Z,75.88
2023-03-10T17:52:26.503Z,75.96
2023-03-10T18:01:16.275Z,75.95
2023-03-10T18:18:18.841Z,76.44
2023-03-10T18:22:48.763Z,76.59
2023-03-10T18:27:12.857Z,76.62
2023-03-10T18:31:43.951Z,76.52
2023-03-10T19:22:10.173Z,76.80
2023-03-10T19:26:28.310Z,76.44
2023-03-10T19:30:38.110Z,76.60
2023-03-10T20:04:22.526Z,76.84
2023-03-10T20:08:52.610Z,76.95
2023-03-10T20:13:22.555Z,77.08
2023-03-10T20:17:53.099Z,76.96
2023-03-10T20:39:28.152Z,77.08
2023-03-10T20:43:58.252Z,77.24
2023-03-10T20:48:26.095Z,77.10
2023-03-10T20:52:56.560Z,77.43
2023-03-10T20:57:27.041Z,77.31
2023-03-10T21:23:15.385Z,77.63
2023-03-10T21:27:37.251Z,77.46
2023-03-10T21:31:59.220Z,77.42
2023-03-10T21:36:28.682Z,77.81
2023-03-10T21:58:07.527Z,77.58
2023-03-10T22:02:37.016Z,77.30
2023-03-10T22:07:05.181Z,77.43
2023-03-10T22:11:34.399Z,77.77
2023-03-10T22:16:03.694Z,77.83
2023-03-10T22:28:56.451Z,77.71
2023-03-10T22:33:07.939Z,77.60
2023-03-10T22:37:30.129Z,77.73
2023-03-10T22:41:52.010Z,77.58
2023-03-10T22:46:24.406Z,77.63
2023-03-10T23:05:18.727Z,77.97
2023-03-10T23:09:48.152Z,77.80
2023-03-10T23:14:18.872Z,77.85
2023-03-10T23:35:54.657Z,78.23
2023-03-10T23:40:23.984Z,78.16
2023-03-10T23:44:53.502Z,78.42
2023-03-10T23:49:23.600Z,78.50
